Haramachi Maru — JBML — position and weather

sailwx.info

Track history (hours):
 
Tides and Currents Weather Stations Pressure Air Temp Water Temp Dewpoint Dewpoint Depression Visibility Wind Speed Wind Dir Waves Ship Positions

Haramachi Maru

Last reported at 2015-Jan-12 00:22 UTC. Time now 2015-Jan-28 20:13 UTC.
Position S 27°07' E 153°52'.
Warning: this ship's position is 16 days out of date.

Length 239.8 m; beam 43 m.

Type: Cargo ship. MMSI: 431106000.

Date/timePositionNaut miles runAvg speedWind from/ knotsBaromVisibWave heightAir tempDewpointWater temp
2015-Jan-12 00:22S 27°07' E 153°52'1310.3
2015-Jan-11 23:07S 27°19' E 153°51'6 9.9
2015-Jan-11 22:30S 27°26' E 153°50'9 9.7
2015-Jan-11 21:32S 27°35' E 153°50'9 9.4
2015-Jan-11 20:33S 27°44' E 153°51'9 9.2
2015-Jan-11 19:33S 27°53' E 153°50'10 9.6
2015-Jan-11 18:31S 28°03' E 153°50'12 9.8
2015-Jan-11 17:18S 28°15' E 153°50'256 8.5
2015-Jan-10 11:09S 32°25' E 152°45'10 8.9
2015-Jan-10 10:04S 32°33' E 152°39'5 9.6
2015-Jan-10 09:33S 32°37' E 152°36'1010.2
2015-Jan-10 08:33S 32°45' E 152°29'1010.6
2015-Jan-10 07:33S 32°53' E 152°21'1110.8
2015-Jan-10 06:33S 32°58' E 152°09'1010.1
2015-Jan-10 05:33S 32°60' E 151°57'9 8.7
2015-Jan-10 04:33S 32°55' E 151°49'3 2.6
2015-Jan-10 03:33S 32°53' E 151°46'0 0.0
2015-Jan-10 02:33S 32°53' E 151°46'0 0.0
2015-Jan-10 01:30S 32°53' E 151°46'0 0.0
2015-Jan-10 00:30S 32°53' E 151°46'0 0.0
2015-Jan-09 23:12S 32°53' E 151°46'0 0.0
2015-Jan-09 22:30S 32°53' E 151°46'0 0.0
2015-Jan-09 21:33S 32°53' E 151°46'0 0.0
2015-Jan-09 20:33S 32°53' E 151°46'0 0.0
2015-Jan-09 19:24S 32°53' E 151°46'0 0.0
2015-Jan-09 18:30S 32°53' E 151°46'0 0.0
2015-Jan-09 17:30S 32°53' E 151°46'0 0.0
2015-Jan-09 16:30S 32°53' E 151°46'0 0.0
2015-Jan-09 15:33S 32°53' E 151°46'0 0.0
2015-Jan-09 14:33S 32°53' E 151°46'0 0.0
2015-Jan-09 13:12S 32°53' E 151°46'0 0.0
2015-Jan-09 11:33S 32°53' E 151°46'0 0.0
2015-Jan-09 10:30S 32°53' E 151°46'0 0.0
2015-Jan-09 09:30S 32°53' E 151°46'0 0.0
2015-Jan-09 08:30S 32°53' E 151°46'0 0.0
2015-Jan-09 07:33S 32°53' E 151°46'0 0.0
2015-Jan-09 06:27S 32°53' E 151°46'0 0.0
2015-Jan-09 05:30S 32°53' E 151°46'0 0.0
2015-Jan-09 04:33S 32°53' E 151°46'2 2.4
2015-Jan-09 03:33S 32°55' E 151°48'7 6.5
2015-Jan-09 02:32S 33°01' E 151°52'15 0.5
2015-Jan-07 20:33S 33°13' E 152°02'1313.1
2015-Jan-07 19:32S 33°19' E 152°16'6 1.8
2015-Jan-07 16:17S 33°15' E 152°21'2 2.1
2015-Jan-07 15:33S 33°13' E 152°22'2 2.2
2015-Jan-07 14:33S 33°11' E 152°23'2 2.1
2015-Jan-07 13:33S 33°09' E 152°23'2 2.3
2015-Jan-07 12:33S 33°07' E 152°24'3 2.3
2015-Jan-07 11:22S 33°04' E 152°24'2 2.3
2015-Jan-07 10:33S 33°02' E 152°24'3 2.5
2015-Jan-07 09:30S 32°60' E 152°25'2 2.5
2015-Jan-07 08:33S 32°57' E 152°26'3 2.7
2015-Jan-07 07:33S 32°55' E 152°27'3 2.8
2015-Jan-07 06:33S 32°52' E 152°28'3 2.7
2015-Jan-07 05:33S 32°50' E 152°30'3 2.5
2015-Jan-07 04:33S 32°48' E 152°31'2 2.3
2015-Jan-07 03:33S 32°46' E 152°33'2 2.0
2015-Jan-07 02:33S 32°44' E 152°35'2 2.0
2015-Jan-07 01:33S 32°43' E 152°36'2 1.9
2015-Jan-07 00:33S 32°41' E 152°38'2 1.9
2015-Jan-06 23:33S 32°40' E 152°39'2 2.0
2015-Jan-06 22:33S 32°39' E 152°41'2 2.4
2015-Jan-06 21:33S 32°37' E 152°42'3 2.7
2015-Jan-06 20:33S 32°34' E 152°44'3 2.6
2015-Jan-06 19:32S 32°32' E 152°46'10 3.3
2015-Jan-06 16:26S 32°23' E 152°51'263 8.0
2015-Jan-05 07:29S 28°05' E 153°51'1314.1
2015-Jan-05 06:33S 27°52' E 153°51'1414.1
2015-Jan-05 05:33S 27°38' E 153°50'1513.9
2015-Jan-05 04:27S 27°22' E 153°51'1213.5
2015-Jan-05 03:33S 27°10' E 153°51'1413.7
2015-Jan-05 02:33S 26°57' E 153°52'1414.1
2015-Jan-05 01:33S 26°43' E 153°52'  
Track history (hours):
 
Tides and Currents Weather Stations Pressure Air Temp Water Temp Dewpoint Dewpoint Depression Visibility Wind Speed Wind Dir Waves Ship Positions

Haramachi Maru

Last reported at 2015-Jan-12 00:22 UTC. Time now 2015-Jan-28 20:13 UTC.
Position S 27°07' E 153°52'.
Warning: this ship's position is 16 days out of date.

Length 239.8 m; beam 43 m.

Type: Cargo ship. MMSI: 431106000.

Date/timePositionNaut miles runAvg speedWind from/ knotsBaromVisibWave heightAir tempDewpointWater temp
2015-Jan-12 00:22S 27°07' E 153°52'1310.3
2015-Jan-11 23:07S 27°19' E 153°51'6 9.9
2015-Jan-11 22:30S 27°26' E 153°50'9 9.7
2015-Jan-11 21:32S 27°35' E 153°50'9 9.4
2015-Jan-11 20:33S 27°44' E 153°51'9 9.2
2015-Jan-11 19:33S 27°53' E 153°50'10 9.6
2015-Jan-11 18:31S 28°03' E 153°50'12 9.8
2015-Jan-11 17:18S 28°15' E 153°50'256 8.5
2015-Jan-10 11:09S 32°25' E 152°45'10 8.9
2015-Jan-10 10:04S 32°33' E 152°39'5 9.6
2015-Jan-10 09:33S 32°37' E 152°36'1010.2
2015-Jan-10 08:33S 32°45' E 152°29'1010.6
2015-Jan-10 07:33S 32°53' E 152°21'1110.8
2015-Jan-10 06:33S 32°58' E 152°09'1010.1
2015-Jan-10 05:33S 32°60' E 151°57'9 8.7
2015-Jan-10 04:33S 32°55' E 151°49'3 2.6
2015-Jan-10 03:33S 32°53' E 151°46'0 0.0
2015-Jan-10 02:33S 32°53' E 151°46'0 0.0
2015-Jan-10 01:30S 32°53' E 151°46'0 0.0
2015-Jan-10 00:30S 32°53' E 151°46'0 0.0
2015-Jan-09 23:12S 32°53' E 151°46'0 0.0
2015-Jan-09 22:30S 32°53' E 151°46'0 0.0
2015-Jan-09 21:33S 32°53' E 151°46'0 0.0
2015-Jan-09 20:33S 32°53' E 151°46'0 0.0
2015-Jan-09 19:24S 32°53' E 151°46'0 0.0
2015-Jan-09 18:30S 32°53' E 151°46'0 0.0
2015-Jan-09 17:30S 32°53' E 151°46'0 0.0
2015-Jan-09 16:30S 32°53' E 151°46'0 0.0
2015-Jan-09 15:33S 32°53' E 151°46'0 0.0
2015-Jan-09 14:33S 32°53' E 151°46'0 0.0
2015-Jan-09 13:12S 32°53' E 151°46'0 0.0
2015-Jan-09 11:33S 32°53' E 151°46'0 0.0
2015-Jan-09 10:30S 32°53' E 151°46'0 0.0
2015-Jan-09 09:30S 32°53' E 151°46'0 0.0
2015-Jan-09 08:30S 32°53' E 151°46'0 0.0
2015-Jan-09 07:33S 32°53' E 151°46'0 0.0
2015-Jan-09 06:27S 32°53' E 151°46'0 0.0
2015-Jan-09 05:30S 32°53' E 151°46'0 0.0
2015-Jan-09 04:33S 32°53' E 151°46'2 2.4
2015-Jan-09 03:33S 32°55' E 151°48'7 6.5
2015-Jan-09 02:32S 33°01' E 151°52'15 0.5
2015-Jan-07 20:33S 33°13' E 152°02'1313.1
2015-Jan-07 19:32S 33°19' E 152°16'6 1.8
2015-Jan-07 16:17S 33°15' E 152°21'2 2.1
2015-Jan-07 15:33S 33°13' E 152°22'2 2.2
2015-Jan-07 14:33S 33°11' E 152°23'2 2.1
2015-Jan-07 13:33S 33°09' E 152°23'2 2.3
2015-Jan-07 12:33S 33°07' E 152°24'3 2.3
2015-Jan-07 11:22S 33°04' E 152°24'2 2.3
2015-Jan-07 10:33S 33°02' E 152°24'3 2.5
2015-Jan-07 09:30S 32°60' E 152°25'2 2.5
2015-Jan-07 08:33S 32°57' E 152°26'3 2.7
2015-Jan-07 07:33S 32°55' E 152°27'3 2.8
2015-Jan-07 06:33S 32°52' E 152°28'3 2.7
2015-Jan-07 05:33S 32°50' E 152°30'3 2.5
2015-Jan-07 04:33S 32°48' E 152°31'2 2.3
2015-Jan-07 03:33S 32°46' E 152°33'2 2.0
2015-Jan-07 02:33S 32°44' E 152°35'2 2.0
2015-Jan-07 01:33S 32°43' E 152°36'2 1.9
2015-Jan-07 00:33S 32°41' E 152°38'2 1.9
2015-Jan-06 23:33S 32°40' E 152°39'2 2.0
2015-Jan-06 22:33S 32°39' E 152°41'2 2.4
2015-Jan-06 21:33S 32°37' E 152°42'3 2.7
2015-Jan-06 20:33S 32°34' E 152°44'3 2.6
2015-Jan-06 19:32S 32°32' E 152°46'10 3.3
2015-Jan-06 16:26S 32°23' E 152°51'263 8.0
2015-Jan-05 07:29S 28°05' E 153°51'1314.1
2015-Jan-05 06:33S 27°52' E 153°51'1414.1
2015-Jan-05 05:33S 27°38' E 153°50'1513.9
2015-Jan-05 04:27S 27°22' E 153°51'1213.5
2015-Jan-05 03:33S 27°10' E 153°51'1413.7
2015-Jan-05 02:33S 26°57' E 153°52'1414.1
2015-Jan-05 01:33S 26°43' E 153°52'  

Dump ship's entire track history